sensor_id;sensor_type;location;lat;lon;timestamp;pressure;altitude;pressure_sealevel;temperature;humidity
20987;BME280;10652;50.306;8.570;2022-12-10T00:00:39;96960.16;;;0.88;92.43
20987;BME280;10652;50.306;8.570;2022-12-10T00:04:41;96949.88;;;0.86;92.46
20987;BME280;10652;50.306;8.570;2022-12-10T00:08:50;96958.31;;;0.95;92.57
20987;BME280;10652;50.306;8.570;2022-12-10T00:12:52;96961.75;;;0.95;92.50
20987;BME280;10652;50.306;8.570;2022-12-10T00:16:54;96962.50;;;1.00;92.63
20987;BME280;10652;50.306;8.570;2022-12-10T00:20:56;96957.38;;;0.99;92.03
20987;BME280;10652;50.306;8.570;2022-12-10T00:24:58;96970.28;;;0.99;90.81
20987;BME280;10652;50.306;8.570;2022-12-10T00:29:02;96961.78;;;0.92;91.17
20987;BME280;10652;50.306;8.570;2022-12-10T00:33:05;96970.31;;;0.96;91.54
20987;BME280;10652;50.306;8.570;2022-12-10T00:37:07;96961.69;;;0.97;90.51
20987;BME280;10652;50.306;8.570;2022-12-10T00:41:10;96960.91;;;0.93;90.71
20987;BME280;10652;50.306;8.570;2022-12-10T00:45:12;96965.03;;;1.02;91.46
20987;BME280;10652;50.306;8.570;2022-12-10T00:49:14;96960.72;;;1.04;90.61
20987;BME280;10652;50.306;8.570;2022-12-10T00:53:16;96972.78;;;1.00;90.50
20987;BME280;10652;50.306;8.570;2022-12-10T00:57:18;96968.47;;;1.04;90.41
20987;BME280;10652;50.306;8.570;2022-12-10T01:05:27;96963.44;;;0.96;90.80
20987;BME280;10652;50.306;8.570;2022-12-10T01:09:30;96960.91;;;0.93;91.07
20987;BME280;10652;50.306;8.570;2022-12-10T01:13:32;96971.13;;;0.98;90.50
20987;BME280;10652;50.306;8.570;2022-12-10T01:17:34;96976.28;;;0.99;89.77
20987;BME280;10652;50.306;8.570;2022-12-10T01:21:36;96974.56;;;0.98;89.35
20987;BME280;10652;50.306;8.570;2022-12-10T01:25:38;96989.19;;;0.96;90.06
20987;BME280;10652;50.306;8.570;2022-12-10T01:29:41;96988.22;;;1.03;89.93
20987;BME280;10652;50.306;8.570;2022-12-10T01:33:44;96994.22;;;1.04;88.98
20987;BME280;10652;50.306;8.570;2022-12-10T01:37:47;97001.16;;;1.00;89.03
20987;BME280;10652;50.306;8.570;2022-12-10T01:41:50;96998.72;;;0.91;88.11
20987;BME280;10652;50.306;8.570;2022-12-10T01:45:52;97010.75;;;0.92;89.07
20987;BME280;10652;50.306;8.570;2022-12-10T01:49:57;97014.94;;;0.99;89.21
20987;BME280;10652;50.306;8.570;2022-12-10T01:53:59;97015.06;;;0.92;87.45
20987;BME280;10652;50.306;8.570;2022-12-10T01:58:02;97024.56;;;0.86;87.76
20987;BME280;10652;50.306;8.570;2022-12-10T02:06:38;97014.09;;;0.97;88.85
20987;BME280;10652;50.306;8.570;2022-12-10T02:11:17;97019.97;;;1.05;88.79
20987;BME280;10652;50.306;8.570;2022-12-10T02:15:29;97008.66;;;1.12;88.30
20987;BME280;10652;50.306;8.570;2022-12-10T02:24:07;97006.91;;;1.14;86.86
20987;BME280;10652;50.306;8.570;2022-12-10T02:28:34;96999.22;;;1.13;86.55
20987;BME280;10652;50.306;8.570;2022-12-10T02:32:43;97004.38;;;1.11;86.99
20987;BME280;10652;50.306;8.570;2022-12-10T02:36:50;96996.59;;;1.14;86.74
20987;BME280;10652;50.306;8.570;2022-12-10T02:40:59;96987.97;;;1.17;87.02
20987;BME280;10652;50.306;8.570;2022-12-10T02:45:04;96989.59;;;1.22;87.00
20987;BME280;10652;50.306;8.570;2022-12-10T02:49:08;96992.97;;;1.24;86.96
20987;BME280;10652;50.306;8.570;2022-12-10T02:53:13;96995.44;;;1.29;86.63
20987;BME280;10652;50.306;8.570;2022-12-10T02:57:33;96998.03;;;1.27;86.17
20987;BME280;10652;50.306;8.570;2022-12-10T03:01:52;96994.69;;;1.24;86.59
20987;BME280;10652;50.306;8.570;2022-12-10T03:06:27;96997.16;;;1.30;86.00
20987;BME280;10652;50.306;8.570;2022-12-10T03:11:08;96989.59;;;1.21;85.46
20987;BME280;10652;50.306;8.570;2022-12-10T03:15:09;96997.41;;;1.18;85.93
20987;BME280;10652;50.306;8.570;2022-12-10T03:19:16;96992.19;;;1.21;86.04
20987;BME280;10652;50.306;8.570;2022-12-10T03:23:20;96995.69;;;1.17;86.44
20987;BME280;10652;50.306;8.570;2022-12-10T03:27:23;96987.09;;;1.18;86.42
20987;BME280;10652;50.306;8.570;2022-12-10T03:31:26;96988.75;;;1.19;86.38
20987;BME280;10652;50.306;8.570;2022-12-10T03:35:28;96983.59;;;1.19;86.77
20987;BME280;10652;50.306;8.570;2022-12-10T03:39:31;96984.63;;;1.12;86.34
20987;BME280;10652;50.306;8.570;2022-12-10T03:43:34;96982.84;;;1.14;87.17
20987;BME280;10652;50.306;8.570;2022-12-10T03:47:36;96978.44;;;1.19;87.60
20987;BME280;10652;50.306;8.570;2022-12-10T03:51:38;96979.19;;;1.27;87.89
20987;BME280;10652;50.306;8.570;2022-12-10T03:55:40;96981.56;;;1.36;87.83
20987;BME280;10652;50.306;8.570;2022-12-10T03:59:42;96979.81;;;1.37;86.87
20987;BME280;10652;50.306;8.570;2022-12-10T04:03:44;96978.09;;;1.37;87.34
20987;BME280;10652;50.306;8.570;2022-12-10T04:07:46;96974.63;;;1.38;86.78
20987;BME280;10652;50.306;8.570;2022-12-10T04:11:48;96980.66;;;1.37;86.47
20987;BME280;10652;50.306;8.570;2022-12-10T04:15:50;96983.22;;;1.39;87.08
20987;BME280;10652;50.306;8.570;2022-12-10T04:20:11;96981.50;;;1.39;86.58
20987;BME280;10652;50.306;8.570;2022-12-10T04:24:33;96989.25;;;1.38;86.56
20987;BME280;10652;50.306;8.570;2022-12-10T04:28:54;96980.75;;;1.34;86.71
20987;BME280;10652;50.306;8.570;2022-12-10T04:32:56;96980.72;;;1.36;86.77
20987;BME280;10652;50.306;8.570;2022-12-10T04:36:59;96986.75;;;1.34;86.63
20987;BME280;10652;50.306;8.570;2022-12-10T04:41:02;96981.59;;;1.34;86.90
20987;BME280;10652;50.306;8.570;2022-12-10T04:45:04;96981.56;;;1.36;86.45
20987;BME280;10652;50.306;8.570;2022-12-10T04:49:07;96985.72;;;1.42;87.42
20987;BME280;10652;50.306;8.570;2022-12-10T04:53:09;96986.47;;;1.48;87.14
20987;BME280;10652;50.306;8.570;2022-12-10T04:57:11;96983.88;;;1.50;86.88
20987;BME280;10652;50.306;8.570;2022-12-10T05:01:13;96995.06;;;1.49;86.03
20987;BME280;10652;50.306;8.570;2022-12-10T05:05:16;96990.09;;;1.40;86.07
20987;BME280;10652;50.306;8.570;2022-12-10T05:09:18;96991.97;;;1.31;86.55
20987;BME280;10652;50.306;8.570;2022-12-10T05:13:20;96983.31;;;1.34;87.05
20987;BME280;10652;50.306;8.570;2022-12-10T05:17:22;96993.63;;;1.34;87.25
20987;BME280;10652;50.306;8.570;2022-12-10T05:21:26;96993.56;;;1.37;86.87
20987;BME280;10652;50.306;8.570;2022-12-10T05:25:47;96994.31;;;1.44;87.58
20987;BME280;10652;50.306;8.570;2022-12-10T05:29:54;96991.63;;;1.48;87.34
20987;BME280;10652;50.306;8.570;2022-12-10T05:33:57;96996.72;;;1.51;87.98
20987;BME280;10652;50.306;8.570;2022-12-10T05:37:59;96998.34;;;1.55;87.17
20987;BME280;10652;50.306;8.570;2022-12-10T05:42:02;97002.81;;;1.47;86.29
20987;BME280;10652;50.306;8.570;2022-12-10T05:46:06;97011.63;;;1.37;86.42
20987;BME280;10652;50.306;8.570;2022-12-10T05:50:08;97019.41;;;1.36;86.94
20987;BME280;10652;50.306;8.570;2022-12-10T05:54:11;97010.84;;;1.32;86.67
20987;BME280;10652;50.306;8.570;2022-12-10T05:58:13;97017.66;;;1.36;88.39
20987;BME280;10652;50.306;8.570;2022-12-10T06:02:15;97016.84;;;1.32;87.43
20987;BME280;10652;50.306;8.570;2022-12-10T06:06:28;97022.06;;;1.31;87.64
20987;BME280;10652;50.306;8.570;2022-12-10T06:10:34;97023.75;;;1.32;87.10
20987;BME280;10652;50.306;8.570;2022-12-10T06:14:36;97024.56;;;1.34;87.64
20987;BME280;10652;50.306;8.570;2022-12-10T06:18:39;97021.13;;;1.35;87.38
20987;BME280;10652;50.306;8.570;2022-12-10T06:22:41;97027.13;;;1.36;87.00
20987;BME280;10652;50.306;8.570;2022-12-10T06:26:43;97029.81;;;1.31;86.91
20987;BME280;10652;50.306;8.570;2022-12-10T06:30:45;97030.75;;;1.27;87.35
20987;BME280;10652;50.306;8.570;2022-12-10T06:34:47;97036.81;;;1.23;87.74
20987;BME280;10652;50.306;8.570;2022-12-10T06:38:49;97030.06;;;1.16;88.19
20987;BME280;10652;50.306;8.570;2022-12-10T06:42:51;97037.81;;;1.14;88.06
20987;BME280;10652;50.306;8.570;2022-12-10T06:46:54;97038.81;;;1.09;88.65
20987;BME280;10652;50.306;8.570;2022-12-10T06:50:56;97047.50;;;1.02;89.11
20987;BME280;10652;50.306;8.570;2022-12-10T06:54:58;97064.69;;;1.03;89.89
20987;BME280;10652;50.306;8.570;2022-12-10T06:59:04;97066.41;;;1.02;90.37
20987;BME280;10652;50.306;8.570;2022-12-10T07:03:06;97067.31;;;1.00;90.25
20987;BME280;10652;50.306;8.570;2022-12-10T07:07:08;97074.25;;;0.96;90.62
20987;BME280;10652;50.306;8.570;2022-12-10T07:11:13;97070.06;;;0.91;91.15
20987;BME280;10652;50.306;8.570;2022-12-10T07:15:15;97069.22;;;0.88;91.70
20987;BME280;10652;50.306;8.570;2022-12-10T07:19:17;97064.91;;;0.89;92.39
20987;BME280;10652;50.306;8.570;2022-12-10T07:23:20;97078.59;;;0.93;92.32
20987;BME280;10652;50.306;8.570;2022-12-10T07:27:22;97084.63;;;0.92;92.76
20987;BME280;10652;50.306;8.570;2022-12-10T07:31:25;97084.59;;;0.93;92.68
20987;BME280;10652;50.306;8.570;2022-12-10T07:35:27;97092.34;;;0.93;93.00
20987;BME280;10652;50.306;8.570;2022-12-10T07:39:29;97094.91;;;0.95;93.29
20987;BME280;10652;50.306;8.570;2022-12-10T07:43:36;97097.41;;;0.98;92.74
20987;BME280;10652;50.306;8.570;2022-12-10T07:47:38;97095.78;;;0.92;92.48
20987;BME280;10652;50.306;8.570;2022-12-10T07:51:48;97092.31;;;0.95;92.51
20987;BME280;10652;50.306;8.570;2022-12-10T07:55:50;97100.00;;;0.98;92.44
20987;BME280;10652;50.306;8.570;2022-12-10T07:59:52;97098.13;;;1.06;92.74
20987;BME280;10652;50.306;8.570;2022-12-10T08:03:55;97104.81;;;1.17;92.64
20987;BME280;10652;50.306;8.570;2022-12-10T08:08:00;97110.69;;;1.24;92.16
20987;BME280;10652;50.306;8.570;2022-12-10T08:12:08;97112.34;;;1.28;92.11
20987;BME280;10652;50.306;8.570;2022-12-10T08:16:19;97109.91;;;1.22;91.45
20987;BME280;10652;50.306;8.570;2022-12-10T08:20:22;97108.19;;;1.21;91.31
20987;BME280;10652;50.306;8.570;2022-12-10T08:24:24;97123.56;;;1.25;91.35
20987;BME280;10652;50.306;8.570;2022-12-10T08:28:26;97125.22;;;1.29;91.25
20987;BME280;10652;50.306;8.570;2022-12-10T08:32:28;97132.03;;;1.32;91.16
20987;BME280;10652;50.306;8.570;2022-12-10T08:36:30;97117.41;;;1.34;91.17
20987;BME280;10652;50.306;8.570;2022-12-10T08:40:32;97129.94;;;2.00;96.83
20987;BME280;10652;50.306;8.570;2022-12-10T08:44:35;97126.06;;;2.19;92.52
20987;BME280;10652;50.306;8.570;2022-12-10T08:48:37;97128.22;;;1.99;88.12
20987;BME280;10652;50.306;8.570;2022-12-10T08:52:40;97129.25;;;1.90;88.20
20987;BME280;10652;50.306;8.570;2022-12-10T08:56:42;97139.69;;;1.84;87.71
20987;BME280;10652;50.306;8.570;2022-12-10T09:00:44;97145.84;;;1.77;86.97
20987;BME280;10652;50.306;8.570;2022-12-10T09:04:46;97147.69;;;1.70;87.86
20987;BME280;10652;50.306;8.570;2022-12-10T09:08:51;97147.72;;;1.69;88.42
20987;BME280;10652;50.306;8.570;2022-12-10T09:12:53;97157.25;;;1.65;88.11
20987;BME280;10652;50.306;8.570;2022-12-10T09:17:04;97164.28;;;1.57;87.73
20987;BME280;10652;50.306;8.570;2022-12-10T09:21:15;97169.50;;;1.54;88.26
20987;BME280;10652;50.306;8.570;2022-12-10T09:25:18;97171.16;;;1.58;89.19
20987;BME280;10652;50.306;8.570;2022-12-10T09:29:23;97175.31;;;1.64;88.20
20987;BME280;10652;50.306;8.570;2022-12-10T09:33:26;97171.19;;;1.55;87.93
20987;BME280;10652;50.306;8.570;2022-12-10T09:37:28;97171.25;;;1.52;87.82
20987;BME280;10652;50.306;8.570;2022-12-10T09:41:39;97166.94;;;1.51;88.14
20987;BME280;10652;50.306;8.570;2022-12-10T09:54:57;97158.75;;;1.77;88.69
20987;BME280;10652;50.306;8.570;2022-12-10T09:59:15;97157.78;;;1.83;88.25
20987;BME280;10652;50.306;8.570;2022-12-10T10:03:18;97154.31;;;1.84;88.05
20987;BME280;10652;50.306;8.570;2022-12-10T10:07:23;97154.22;;;1.90;87.39
20987;BME280;10652;50.306;8.570;2022-12-10T10:11:32;97155.16;;;1.84;86.87
20987;BME280;10652;50.306;8.570;2022-12-10T10:15:37;97149.91;;;1.89;87.77
20987;BME280;10652;50.306;8.570;2022-12-10T10:19:39;97157.50;;;1.98;86.89
20987;BME280;10652;50.306;8.570;2022-12-10T10:23:44;97157.78;;;1.83;85.76
20987;BME280;10652;50.306;8.570;2022-12-10T10:27:46;97162.16;;;1.77;86.79
20987;BME280;10652;50.306;8.570;2022-12-10T10:32:12;97159.53;;;1.81;87.16
20987;BME280;10652;50.306;8.570;2022-12-10T10:36:15;97166.25;;;1.91;86.77
20987;BME280;10652;50.306;8.570;2022-12-10T10:40:33;97160.09;;;1.96;86.41
20987;BME280;10652;50.306;8.570;2022-12-10T10:44:41;97147.44;;;1.83;86.03
20987;BME280;10652;50.306;8.570;2022-12-10T10:48:44;97153.44;;;1.86;87.36
20987;BME280;10652;50.306;8.570;2022-12-10T10:52:46;97156.47;;;2.05;87.07
20987;BME280;10652;50.306;8.570;2022-12-10T10:56:48;97158.09;;;2.10;86.14
20987;BME280;10652;50.306;8.570;2022-12-10T11:05:06;97163.84;;;2.23;85.50
20987;BME280;10652;50.306;8.570;2022-12-10T11:09:17;97170.72;;;2.24;84.39
20987;BME280;10652;50.306;8.570;2022-12-10T11:13:26;97162.88;;;2.29;85.13
20987;BME280;10652;50.306;8.570;2022-12-10T11:17:28;97159.25;;;2.37;85.46
20987;BME280;10652;50.306;8.570;2022-12-10T11:21:32;97164.03;;;2.55;84.55
20987;BME280;10652;50.306;8.570;2022-12-10T11:26:01;97163.03;;;2.62;83.82
20987;BME280;10652;50.306;8.570;2022-12-10T11:30:09;97159.31;;;2.73;82.80
20987;BME280;10652;50.306;8.570;2022-12-10T11:39:52;97166.50;;;2.61;80.01
20987;BME280;10652;50.306;8.570;2022-12-10T11:43:37;97166.50;;;2.61;81.19
20987;BME280;10652;50.306;8.570;2022-12-10T11:56:33;97172.03;;;2.83;79.10
20987;BME280;10652;50.306;8.570;2022-12-10T12:00:51;97176.28;;;2.86;77.34
20987;BME280;10652;50.306;8.570;2022-12-10T12:05:27;97178.25;;;2.75;76.64
20987;BME280;10652;50.306;8.570;2022-12-10T12:14:07;97184.47;;;2.66;78.29
20987;BME280;10652;50.306;8.570;2022-12-10T12:18:25;97185.25;;;2.69;79.15
20987;BME280;10652;50.306;8.570;2022-12-10T12:22:34;97180.00;;;2.73;78.24
20987;BME280;10652;50.306;8.570;2022-12-10T12:26:42;97191.94;;;2.80;78.37
20987;BME280;10652;50.306;8.570;2022-12-10T12:30:53;97186.69;;;2.83;77.34
20987;BME280;10652;50.306;8.570;2022-12-10T12:39:32;97188.72;;;2.68;77.38
20987;BME280;10652;50.306;8.570;2022-12-10T12:47:53;97187.94;;;2.65;76.42
20987;BME280;10652;50.306;8.570;2022-12-10T12:52:17;97201.09;;;2.54;76.22
20987;BME280;10652;50.306;8.570;2022-12-10T12:56:46;97205.50;;;2.49;77.02
20987;BME280;10652;50.306;8.570;2022-12-10T13:00:58;97206.31;;;2.51;77.26
20987;BME280;10652;50.306;8.570;2022-12-10T13:05:03;97197.81;;;2.46;76.85
20987;BME280;10652;50.306;8.570;2022-12-10T13:13:23;97200.13;;;2.17;77.29
20987;BME280;10652;50.306;8.570;2022-12-10T13:17:34;97200.34;;;2.05;78.33
20987;BME280;10652;50.306;8.570;2022-12-10T13:25:59;97214.94;;;2.09;77.69
20987;BME280;10652;50.306;8.570;2022-12-10T13:30:25;97219.38;;;2.01;78.45
20987;BME280;10652;50.306;8.570;2022-12-10T13:34:35;97214.03;;;2.10;79.16
20987;BME280;10652;50.306;8.570;2022-12-10T13:38:54;97216.44;;;2.19;78.05
20987;BME280;10652;50.306;8.570;2022-12-10T13:43:36;97226.19;;;2.05;77.03
20987;BME280;10652;50.306;8.570;2022-12-10T13:52:22;97235.00;;;1.95;77.58
20987;BME280;10652;50.306;8.570;2022-12-10T13:56:30;97243.69;;;1.89;77.15
20987;BME280;10652;50.306;8.570;2022-12-10T14:01:12;97253.31;;;1.81;77.05
20987;BME280;10652;50.306;8.570;2022-12-10T14:09:48;97255.19;;;1.70;77.69
20987;BME280;10652;50.306;8.570;2022-12-10T14:13:55;97261.00;;;1.83;77.84
20987;BME280;10652;50.306;8.570;2022-12-10T14:22:05;97266.06;;;1.89;77.84
20987;BME280;10652;50.306;8.570;2022-12-10T14:26:14;97267.78;;;1.88;77.03
20987;BME280;10652;50.306;8.570;2022-12-10T14:30:24;97278.25;;;1.81;76.32
20987;BME280;10652;50.306;8.570;2022-12-10T14:34:28;97288.72;;;1.71;76.34
20987;BME280;10652;50.306;8.570;2022-12-10T14:38:33;97289.75;;;1.60;76.39
20987;BME280;10652;50.306;8.570;2022-12-10T14:42:39;97288.13;;;1.56;76.89
20987;BME280;10652;50.306;8.570;2022-12-10T14:46:41;97293.25;;;1.57;77.69
20987;BME280;10652;50.306;8.570;2022-12-10T14:50:45;97294.91;;;1.61;76.41
20987;BME280;10652;50.306;8.570;2022-12-10T14:54:48;97294.28;;;1.47;75.99
20987;BME280;10652;50.306;8.570;2022-12-10T14:59:00;97297.00;;;1.37;76.22
20987;BME280;10652;50.306;8.570;2022-12-10T15:03:08;97304.88;;;1.29;76.82
20987;BME280;10652;50.306;8.570;2022-12-10T15:07:19;97303.16;;;1.28;78.11
20987;BME280;10652;50.306;8.570;2022-12-10T15:11:24;97308.16;;;1.39;78.22
20987;BME280;10652;50.306;8.570;2022-12-10T15:15:38;97308.00;;;1.49;78.86
20987;BME280;10652;50.306;8.570;2022-12-10T15:19:41;97313.06;;;1.55;78.23
20987;BME280;10652;50.306;8.570;2022-12-10T15:23:44;97308.75;;;1.56;78.18
20987;BME280;10652;50.306;8.570;2022-12-10T15:27:56;97303.66;;;1.53;77.70
20987;BME280;10652;50.306;8.570;2022-12-10T15:32:04;97318.28;;;1.52;77.35
20987;BME280;10652;50.306;8.570;2022-12-10T15:36:16;97310.41;;;1.60;77.01
20987;BME280;10652;50.306;8.570;2022-12-10T15:40:27;97312.88;;;1.67;76.81
20987;BME280;10652;50.306;8.570;2022-12-10T15:48:31;97307.59;;;1.73;75.57
20987;BME280;10652;50.306;8.570;2022-12-10T15:52:33;97315.34;;;1.75;74.98
20987;BME280;10652;50.306;8.570;2022-12-10T15:56:36;97315.47;;;1.67;73.96
20987;BME280;10652;50.306;8.570;2022-12-10T16:00:38;97315.56;;;1.61;74.10
20987;BME280;10652;50.306;8.570;2022-12-10T16:04:45;97326.84;;;1.54;73.45
20987;BME280;10652;50.306;8.570;2022-12-10T16:08:47;97323.63;;;1.40;72.89
20987;BME280;10652;50.306;8.570;2022-12-10T16:12:59;97327.28;;;1.24;74.31
20987;BME280;10652;50.306;8.570;2022-12-10T16:17:02;97329.06;;;1.19;75.17
20987;BME280;10652;50.306;8.570;2022-12-10T16:21:06;97311.94;;;1.15;75.47
20987;BME280;10652;50.306;8.570;2022-12-10T16:25:08;97324.94;;;1.07;75.96
20987;BME280;10652;50.306;8.570;2022-12-10T16:29:10;97329.25;;;1.07;76.46
20987;BME280;10652;50.306;8.570;2022-12-10T16:33:12;97330.09;;;1.09;76.90
20987;BME280;10652;50.306;8.570;2022-12-10T16:37:15;97337.81;;;1.07;77.29
20987;BME280;10652;50.306;8.570;2022-12-10T16:41:21;97334.44;;;1.04;77.67
20987;BME280;10652;50.306;8.570;2022-12-10T16:45:26;97336.19;;;1.02;78.43
20987;BME280;10652;50.306;8.570;2022-12-10T16:49:28;97339.56;;;1.05;78.64
20987;BME280;10652;50.306;8.570;2022-12-10T16:53:30;97333.53;;;1.05;78.76
20987;BME280;10652;50.306;8.570;2022-12-10T16:57:37;97342.13;;;1.07;78.75
20987;BME280;10652;50.306;8.570;2022-12-10T17:01:42;97343.84;;;1.08;78.65
20987;BME280;10652;50.306;8.570;2022-12-10T17:05:44;97350.66;;;1.13;78.76
20987;BME280;10652;50.306;8.570;2022-12-10T17:09:47;97350.66;;;1.13;78.06
20987;BME280;10652;50.306;8.570;2022-12-10T17:13:49;97350.59;;;1.18;78.52
20987;BME280;10652;50.306;8.570;2022-12-10T17:17:52;97356.56;;;1.20;77.79
20987;BME280;10652;50.306;8.570;2022-12-10T17:21:54;97364.34;;;1.15;77.23
20987;BME280;10652;50.306;8.570;2022-12-10T17:25:56;97355.00;;;1.07;76.94
20987;BME280;10652;50.306;8.570;2022-12-10T17:29:59;97359.31;;;1.05;77.85
20987;BME280;10652;50.306;8.570;2022-12-10T17:34:01;97365.38;;;1.01;78.18
20987;BME280;10652;50.306;8.570;2022-12-10T17:38:03;97362.81;;;1.01;78.45
20987;BME280;10652;50.306;8.570;2022-12-10T17:42:05;97374.88;;;0.99;77.84
20987;BME280;10652;50.306;8.570;2022-12-10T17:46:11;97386.09;;;0.95;77.90
20987;BME280;10652;50.306;8.570;2022-12-10T17:50:31;97380.97;;;0.92;77.46
20987;BME280;10652;50.306;8.570;2022-12-10T17:54:36;97384.44;;;0.91;78.12
20987;BME280;10652;50.306;8.570;2022-12-10T17:58:39;97391.31;;;0.90;77.76
20987;BME280;10652;50.306;8.570;2022-12-10T18:02:41;97388.91;;;0.76;77.24
20987;BME280;10652;50.306;8.570;2022-12-10T18:06:44;97394.16;;;0.64;76.97
20987;BME280;10652;50.306;8.570;2022-12-10T18:10:46;97393.47;;;0.47;76.79
20987;BME280;10652;50.306;8.570;2022-12-10T18:14:48;97390.09;;;0.43;78.61
20987;BME280;10652;50.306;8.570;2022-12-10T18:18:50;97382.31;;;0.50;78.72
20987;BME280;10652;50.306;8.570;2022-12-10T18:22:52;97388.25;;;0.56;79.44
20987;BME280;10652;50.306;8.570;2022-12-10T18:26:55;97401.16;;;0.53;79.40
20987;BME280;10652;50.306;8.570;2022-12-10T18:30:58;97403.75;;;0.50;79.70
20987;BME280;10652;50.306;8.570;2022-12-10T18:35:04;97402.97;;;0.45;80.09
20987;BME280;10652;50.306;8.570;2022-12-10T18:39:16;97415.06;;;0.32;79.95
20987;BME280;10652;50.306;8.570;2022-12-10T18:43:19;97408.28;;;0.24;79.94
20987;BME280;10652;50.306;8.570;2022-12-10T18:47:21;97409.22;;;0.14;80.33
20987;BME280;10652;50.306;8.570;2022-12-10T18:51:23;97398.13;;;0.12;80.95
20987;BME280;10652;50.306;8.570;2022-12-10T18:55:26;97409.25;;;0.11;80.79
20987;BME280;10652;50.306;8.570;2022-12-10T18:59:28;97414.47;;;0.03;81.15
20987;BME280;10652;50.306;8.570;2022-12-10T19:03:30;97414.44;;;0.05;81.27
20987;BME280;10652;50.306;8.570;2022-12-10T19:07:32;97415.28;;;0.11;82.07
20987;BME280;10652;50.306;8.570;2022-12-10T19:11:35;97409.16;;;0.23;81.97
20987;BME280;10652;50.306;8.570;2022-12-10T19:15:37;97409.97;;;0.29;81.08
20987;BME280;10652;50.306;8.570;2022-12-10T19:19:44;97405.69;;;0.28;81.14
20987;BME280;10652;50.306;8.570;2022-12-10T19:23:46;97405.63;;;0.34;81.30
20987;BME280;10652;50.306;8.570;2022-12-10T19:27:48;97406.56;;;0.26;80.10
20987;BME280;10652;50.306;8.570;2022-12-10T19:31:51;97408.34;;;0.19;80.34
20987;BME280;10652;50.306;8.570;2022-12-10T19:35:53;97404.06;;;0.17;80.64
20987;BME280;10652;50.306;8.570;2022-12-10T19:39:55;97411.94;;;0.00;80.13
20987;BME280;10652;50.306;8.570;2022-12-10T19:43:57;97408.56;;;-0.08;83.24
20987;BME280;10652;50.306;8.570;2022-12-10T19:47:59;97411.84;;;0.11;84.03
20987;BME280;10652;50.306;8.570;2022-12-10T19:52:01;97416.16;;;0.09;83.03
20987;BME280;10652;50.306;8.570;2022-12-10T19:56:30;97410.31;;;-0.13;81.98
20987;BME280;10652;50.306;8.570;2022-12-10T20:00:33;97414.59;;;-0.09;83.83
20987;BME280;10652;50.306;8.570;2022-12-10T20:04:35;97407.69;;;-0.06;83.32
20987;BME280;10652;50.306;8.570;2022-12-10T20:08:37;97410.25;;;-0.06;83.15
20987;BME280;10652;50.306;8.570;2022-12-10T20:12:39;97418.84;;;-0.08;82.63
20987;BME280;10652;50.306;8.570;2022-12-10T20:16:41;97423.09;;;-0.04;83.32
20987;BME280;10652;50.306;8.570;2022-12-10T20:20:44;97427.41;;;-0.06;82.90
20987;BME280;10652;50.306;8.570;2022-12-10T20:24:46;97413.66;;;-0.04;83.04
20987;BME280;10652;50.306;8.570;2022-12-10T20:28:49;97416.25;;;-0.01;83.01
20987;BME280;10652;50.306;8.570;2022-12-10T20:32:51;97423.13;;;-0.06;82.96
20987;BME280;10652;50.306;8.570;2022-12-10T20:36:53;97412.91;;;-0.18;82.62
20987;BME280;10652;50.306;8.570;2022-12-10T20:40:55;97412.91;;;-0.15;83.75
20987;BME280;10652;50.306;8.570;2022-12-10T20:44:58;97410.25;;;-0.07;84.01
20987;BME280;10652;50.306;8.570;2022-12-10T20:49:00;97414.59;;;-0.11;83.09
20987;BME280;10652;50.306;8.570;2022-12-10T20:53:02;97409.47;;;-0.17;82.44
20987;BME280;10652;50.306;8.570;2022-12-10T20:57:04;97414.69;;;-0.26;82.18
20987;BME280;10652;50.306;8.570;2022-12-10T21:01:06;97410.53;;;-0.42;83.13
20987;BME280;10652;50.306;8.570;2022-12-10T21:05:09;97413.91;;;-0.37;83.71
20987;BME280;10652;50.306;8.570;2022-12-10T21:09:12;97415.53;;;-0.27;84.29
20987;BME280;10652;50.306;8.570;2022-12-10T21:13:14;97412.09;;;-0.20;83.78
20987;BME280;10652;50.306;8.570;2022-12-10T21:17:16;97404.41;;;-0.23;83.19
20987;BME280;10652;50.306;8.570;2022-12-10T21:21:20;97406.16;;;-0.29;83.13
20987;BME280;10652;50.306;8.570;2022-12-10T21:25:22;97402.72;;;-0.30;83.98
20987;BME280;10652;50.306;8.570;2022-12-10T21:29:25;97405.22;;;-0.22;84.40
20987;BME280;10652;50.306;8.570;2022-12-10T21:33:27;97405.16;;;-0.10;84.00
20987;BME280;10652;50.306;8.570;2022-12-10T21:37:29;97395.69;;;-0.05;83.31
20987;BME280;10652;50.306;8.570;2022-12-10T21:41:31;97392.22;;;-0.04;82.80
20987;BME280;10652;50.306;8.570;2022-12-10T21:45:53;97400.78;;;-0.02;83.16
20987;BME280;10652;50.306;8.570;2022-12-10T21:49:56;97386.91;;;0.16;85.56
20987;BME280;10652;50.306;8.570;2022-12-10T21:53:58;97391.22;;;0.17;84.35
20987;BME280;10652;50.306;8.570;2022-12-10T21:58:01;97399.78;;;0.16;83.50
20987;BME280;10652;50.306;8.570;2022-12-10T22:02:03;97402.44;;;0.07;82.75
20987;BME280;10652;50.306;8.570;2022-12-10T22:06:07;97397.31;;;0.04;83.05
20987;BME280;10652;50.306;8.570;2022-12-10T22:10:11;97397.28;;;0.07;82.45
20987;BME280;10652;50.306;8.570;2022-12-10T22:14:13;97397.34;;;0.00;81.61
20987;BME280;10652;50.306;8.570;2022-12-10T22:18:16;97388.88;;;-0.11;81.13
20987;BME280;10652;50.306;8.570;2022-12-10T22:22:18;97388.16;;;-0.32;81.62
20987;BME280;10652;50.306;8.570;2022-12-10T22:26:21;97387.34;;;-0.39;83.14
20987;BME280;10652;50.306;8.570;2022-12-10T22:30:23;97389.09;;;-0.41;83.12
20987;BME280;10652;50.306;8.570;2022-12-10T22:34:26;97377.91;;;-0.38;83.77
20987;BME280;10652;50.306;8.570;2022-12-10T22:38:28;97383.91;;;-0.36;83.62
20987;BME280;10652;50.306;8.570;2022-12-10T22:42:35;97390.78;;;-0.37;83.44
20987;BME280;10652;50.306;8.570;2022-12-10T22:46:39;97382.22;;;-0.42;83.03
20987;BME280;10652;50.306;8.570;2022-12-10T22:50:41;97381.47;;;-0.56;82.39
20987;BME280;10652;50.306;8.570;2022-12-10T22:54:43;97383.31;;;-0.78;83.09
20987;BME280;10652;50.306;8.570;2022-12-10T22:58:45;97387.63;;;-0.86;84.02
20987;BME280;10652;50.306;8.570;2022-12-10T23:02:47;97386.00;;;-1.01;84.84
20987;BME280;10652;50.306;8.570;2022-12-10T23:06:51;97389.44;;;-1.08;86.20
20987;BME280;10652;50.306;8.570;2022-12-10T23:10:53;97379.19;;;-1.11;87.02
20987;BME280;10652;50.306;8.570;2022-12-10T23:14:58;97380.91;;;-1.16;87.39